Time;durP1;ratioP1;P1;durP2;ratioP2;P2;SDS_P1;SDS_P2;PMS_P1;PMS_P2;Temp;Humidity;BMP_temperature;BMP_pressure;BME280_temperature;BME280_humidity;BME280_pressure;Samples;Min_cycle;Max_cycle;Signal;HPM_P1;HPM_P2
2023/03/02 00:04:31;;;;;;;28.63;15.68;;;;;;;;;;10210886;29;20714;-83
2023/03/02 00:09:32;;;;;;;28.90;17.00;;;;;;;;;;10186615;29;20527;-80
2023/03/02 00:14:32;;;;;;;32.60;16.70;;;;;;;;;;10188807;29;20056;-82
2023/03/02 00:19:33;;;;;;;35.95;16.15;;;;;;;;;;10215737;28;20051;-81
2023/03/02 00:24:34;;;;;;;31.67;16.05;;;;;;;;;;10247167;29;20019;-82
2023/03/02 00:29:35;;;;;;;31.45;15.52;;;;;;;;;;10235783;29;20119;-79
2023/03/02 00:34:36;;;;;;;36.35;16.75;;;;;;;;;;10230342;29;20138;-81
2023/03/02 00:39:38;;;;;;;25.88;14.52;;;;;;;;;;10229316;29;20035;-80
2023/03/02 00:44:39;;;;;;;28.30;15.70;;;;;;;;;;10254402;28;20114;-80
2023/03/02 00:49:39;;;;;;;28.13;16.83;;;;;;;;;;10232833;28;20044;-79
2023/03/02 00:54:39;;;;;;;28.85;14.93;;;;;;;;;;10206226;29;20115;-79
2023/03/02 00:59:40;;;;;;;35.08;17.17;;;;;;;;;;10201756;28;20050;-79
2023/03/02 01:04:54;;;;;;;33.17;16.45;;;;;;;;;;10198874;29;20095;-80
2023/03/02 01:09:57;;;;;;;27.67;14.18;;;;;;;;;;10207828;29;20116;-79
2023/03/02 01:14:59;;;;;;;27.37;14.90;;;;;;;;;;10201808;29;20062;-81
2023/03/02 01:19:59;;;;;;;31.45;16.17;;;;;;;;;;10221723;29;20040;-80
2023/03/02 01:24:59;;;;;;;35.58;17.75;;;;;;;;;;10252197;29;20104;-80
2023/03/02 01:30:05;;;;;;;30.73;15.10;;;;;;;;;;10222384;29;20067;-83
2023/03/02 01:35:06;;;;;;;29.38;15.80;;;;;;;;;;10209950;29;20130;-81
2023/03/02 01:40:09;;;;;;;31.98;15.80;;;;;;;;;;10205250;28;20048;-80
2023/03/02 01:45:31;;;;;;;27.08;15.52;;;;;;;;;;10227817;29;20103;-81
2023/03/02 01:50:33;;;;;;;31.63;14.73;;;;;;;;;;10222314;29;20071;-81
2023/03/02 01:55:35;;;;;;;27.95;15.52;;;;;;;;;;10210487;28;20051;-82
2023/03/02 02:00:37;;;;;;;34.33;16.42;;;;;;;;;;10244786;28;20044;-82
2023/03/02 02:05:38;;;;;;;32.00;15.60;;;;;;;;;;10259039;28;20056;-81
2023/03/02 02:10:39;;;;;;;34.72;16.00;;;;;;;;;;10261143;28;20039;-81
2023/03/02 02:15:40;;;;;;;32.08;15.38;;;;;;;;;;10262786;28;20024;-81
2023/03/02 02:20:44;;;;;;;31.05;16.27;;;;;;;;;;10251530;29;20055;-79
2023/03/02 02:25:52;;;;;;;30.83;15.60;;;;;;;;;;10219971;29;20063;-79
2023/03/02 02:30:58;;;;;;;31.38;15.82;;;;;;;;;;10236647;29;20088;-80
2023/03/02 02:36:06;;;;;;;29.83;15.57;;;;;;;;;;10205465;29;20055;-81
2023/03/02 02:41:11;;;;;;;32.90;14.85;;;;;;;;;;10194112;29;20051;-80
2023/03/02 02:46:12;;;;;;;30.27;15.00;;;;;;;;;;10201422;29;20462;-80
2023/03/02 02:51:18;;;;;;;34.78;15.70;;;;;;;;;;10187334;29;20063;-79
2023/03/02 02:56:19;;;;;;;28.25;16.17;;;;;;;;;;10207834;29;20060;-81
2023/03/02 03:01:24;;;;;;;26.70;14.77;;;;;;;;;;10211395;29;20067;-80
2023/03/02 03:06:29;;;;;;;31.05;15.30;;;;;;;;;;10187032;29;20142;-81
2023/03/02 03:11:32;;;;;;;32.33;15.13;;;;;;;;;;10203601;29;20059;-80
2023/03/02 03:16:36;;;;;;;34.25;15.57;;;;;;;;;;10234381;29;20040;-81
2023/03/02 03:21:36;;;;;;;27.15;14.20;;;;;;;;;;10207152;29;20059;-80
2023/03/02 03:26:37;;;;;;;28.17;14.23;;;;;;;;;;10183073;29;20039;-80
2023/03/02 03:31:40;;;;;;;30.55;15.07;;;;;;;;;;10204605;29;20062;-80
2023/03/02 03:36:45;;;;;;;26.52;13.50;;;;;;;;;;10199732;29;20129;-79
2023/03/02 03:41:49;;;;;;;29.58;14.15;;;;;;;;;;10210044;29;20055;-80
2023/03/02 03:46:51;;;;;;;26.58;14.50;;;;;;;;;;10194858;29;20051;-81
2023/03/02 03:51:52;;;;;;;27.02;13.27;;;;;;;;;;10248740;29;20052;-80
2023/03/02 03:56:52;;;;;;;28.95;13.80;;;;;;;;;;10242821;29;20051;-78
2023/03/02 04:01:55;;;;;;;25.58;12.45;;;;;;;;;;10197812;28;20158;-78
2023/03/02 04:06:57;;;;;;;29.33;14.63;;;;;;;;;;10180412;28;20056;-78
2023/03/02 04:11:59;;;;;;;28.83;13.38;;;;;;;;;;10184518;29;20621;-81
2023/03/02 04:17:04;;;;;;;28.25;14.23;;;;;;;;;;10203549;29;20494;-81
2023/03/02 04:22:05;;;;;;;30.70;14.73;;;;;;;;;;10189559;29;20567;-81
2023/03/02 04:27:07;;;;;;;29.67;14.70;;;;;;;;;;10180180;29;20052;-82
2023/03/02 04:32:13;;;;;;;28.88;14.52;;;;;;;;;;10177920;29;20059;-81
2023/03/02 04:37:18;;;;;;;28.02;14.23;;;;;;;;;;10203232;29;20044;-83
2023/03/02 04:42:21;;;;;;;26.95;15.05;;;;;;;;;;10206009;29;20064;-81
2023/03/02 04:47:22;;;;;;;30.23;16.50;;;;;;;;;;10203562;29;20046;-81
2023/03/02 04:52:23;;;;;;;29.83;14.70;;;;;;;;;;10186404;28;20277;-84
2023/03/02 04:57:24;;;;;;;28.00;14.48;;;;;;;;;;10223223;28;20043;-82
2023/03/02 05:02:24;;;;;;;25.33;15.05;;;;;;;;;;10217101;29;20099;-80
2023/03/02 05:07:27;;;;;;;31.75;15.55;;;;;;;;;;10202829;29;20056;-83
2023/03/02 05:12:28;;;;;;;31.00;16.07;;;;;;;;;;10210163;29;20057;-80
2023/03/02 05:17:28;;;;;;;30.87;13.90;;;;;;;;;;10209990;29;20365;-82
2023/03/02 05:22:29;;;;;;;31.35;14.52;;;;;;;;;;10245651;29;20299;-83
2023/03/02 05:27:29;;;;;;;31.08;14.45;;;;;;;;;;10250018;28;20027;-82
2023/03/02 05:32:30;;;;;;;28.42;15.13;;;;;;;;;;10253897;29;20062;-81
2023/03/02 05:37:31;;;;;;;30.95;15.88;;;;;;;;;;10243565;29;20050;-80
2023/03/02 05:42:34;;;;;;;30.63;15.48;;;;;;;;;;10211890;29;20423;-79
2023/03/02 05:47:35;;;;;;;29.23;14.75;;;;;;;;;;10213014;29;20103;-79
2023/03/02 05:52:36;;;;;;;26.70;14.80;;;;;;;;;;10206795;29;20098;-82
2023/03/02 05:57:37;;;;;;;33.55;17.00;;;;;;;;;;10188944;29;20104;-79
2023/03/02 06:02:38;;;;;;;28.25;14.80;;;;;;;;;;10184745;29;20054;-79
2023/03/02 06:07:39;;;;;;;29.90;15.38;;;;;;;;;;10201979;29;20519;-79
2023/03/02 06:12:39;;;;;;;30.80;14.90;;;;;;;;;;10167408;29;20062;-81
2023/03/02 06:17:40;;;;;;;36.22;18.25;;;;;;;;;;10214642;29;20051;-83
2023/03/02 06:22:44;;;;;;;27.60;14.75;;;;;;;;;;10235668;29;20046;-85
2023/03/02 06:27:45;;;;;;;29.73;13.70;;;;;;;;;;10220847;29;20044;-81
2023/03/02 06:32:45;;;;;;;25.42;13.07;;;;;;;;;;10206489;29;20063;-81
2023/03/02 06:37:47;;;;;;;27.17;12.98;;;;;;;;;;10187453;29;20056;-82
2023/03/02 06:42:47;;;;;;;42.72;22.00;;;;;;;;;;10191793;29;20512;-84
2023/03/02 06:47:47;;;;;;;26.02;13.38;;;;;;;;;;10232749;29;20506;-81
2023/03/02 06:52:49;;;;;;;28.23;14.32;;;;;;;;;;10217647;29;20140;-83
2023/03/02 06:57:54;;;;;;;23.50;12.80;;;;;;;;;;10206321;29;20056;-82
2023/03/02 07:02:57;;;;;;;24.60;12.05;;;;;;;;;;10187603;29;20062;-83
2023/03/02 07:07:58;;;;;;;28.38;13.85;;;;;;;;;;10185530;29;20044;-80
2023/03/02 07:12:58;;;;;;;22.60;12.25;;;;;;;;;;10206368;29;20082;-80
2023/03/02 07:18:00;;;;;;;25.35;13.15;;;;;;;;;;10183570;29;20051;-84
2023/03/02 07:23:00;;;;;;;24.30;12.63;;;;;;;;;;10199725;29;20056;-81
2023/03/02 07:28:02;;;;;;;23.17;12.57;;;;;;;;;;10210703;28;20049;-80
2023/03/02 07:33:02;;;;;;;21.98;12.73;;;;;;;;;;10209459;29;20047;-80
2023/03/02 07:38:03;;;;;;;24.08;12.23;;;;;;;;;;10190409;29;20051;-81
2023/03/02 07:43:03;;;;;;;21.40;11.90;;;;;;;;;;10173993;29;20047;-80
2023/03/02 07:48:04;;;;;;;23.60;12.15;;;;;;;;;;10189683;29;20047;-80
2023/03/02 07:53:05;;;;;;;19.77;11.93;;;;;;;;;;10212374;29;20056;-81
2023/03/02 07:58:06;;;;;;;21.30;11.85;;;;;;;;;;10232018;28;20052;-82
2023/03/02 08:03:09;;;;;;;19.75;11.32;;;;;;;;;;10206274;29;20051;-81
2023/03/02 08:08:09;;;;;;;21.80;12.23;;;;;;;;;;10233318;29;20051;-80
2023/03/02 08:13:11;;;;;;;25.05;13.45;;;;;;;;;;10240246;29;20062;-80
2023/03/02 08:18:12;;;;;;;24.87;12.60;;;;;;;;;;10235582;29;20062;-81
2023/03/02 08:23:13;;;;;;;21.23;11.48;;;;;;;;;;10200395;29;20365;-81
2023/03/02 08:28:13;;;;;;;20.13;11.37;;;;;;;;;;10214885;28;20086;-81
2023/03/02 08:33:13;;;;;;;21.10;11.70;;;;;;;;;;10203980;29;20067;-81
2023/03/02 08:38:14;;;;;;;22.25;11.93;;;;;;;;;;10240444;29;20051;-81
2023/03/02 08:43:14;;;;;;;20.67;11.20;;;;;;;;;;10226676;29;20080;-80
2023/03/02 08:48:15;;;;;;;18.60;10.27;;;;;;;;;;10215154;28;20629;-80
2023/03/02 08:53:15;;;;;;;18.63;11.13;;;;;;;;;;10220653;29;20383;-80
2023/03/02 08:58:15;;;;;;;18.38;10.80;;;;;;;;;;10210924;29;20134;-80
2023/03/02 09:03:16;;;;;;;22.23;11.38;;;;;;;;;;10213596;29;20091;-81
2023/03/02 09:08:16;;;;;;;20.42;11.23;;;;;;;;;;10236317;28;20050;-80
2023/03/02 09:13:17;;;;;;;21.00;10.73;;;;;;;;;;10240525;29;20063;-81
2023/03/02 09:18:17;;;;;;;21.70;12.10;;;;;;;;;;10222535;29;20303;-80
2023/03/02 09:23:18;;;;;;;21.85;11.10;;;;;;;;;;10229606;28;20055;-80
2023/03/02 09:28:20;;;;;;;19.25;10.50;;;;;;;;;;10236352;29;20147;-79
2023/03/02 09:33:21;;;;;;;22.02;10.95;;;;;;;;;;10237188;29;20087;-78
2023/03/02 09:38:21;;;;;;;19.10;10.20;;;;;;;;;;10232004;29;20376;-79
2023/03/02 09:43:38;;;;;;;18.08;10.65;;;;;;;;;;10229629;29;20140;-80
2023/03/02 09:49:02;;;;;;;19.77;10.18;;;;;;;;;;10225704;29;20079;-81
2023/03/02 09:54:13;;;;;;;15.90;9.68;;;;;;;;;;10194083;29;20788;-79
2023/03/02 09:59:16;;;;;;;17.83;10.23;;;;;;;;;;10235472;29;20048;-81
2023/03/02 10:04:17;;;;;;;;;;;;;;;;;;10209988;29;20481;-80
2023/03/02 10:09:18;;;;;;;17.17;9.10;;;;;;;;;;10211800;29;20012;-82
2023/03/02 10:14:28;;;;;;;17.63;10.05;;;;;;;;;;10197164;29;20158;-83
2023/03/02 10:19:40;;;;;;;16.40;9.82;;;;;;;;;;10208753;29;20127;-82
2023/03/02 10:24:55;;;;;;;14.70;8.87;;;;;;;;;;10220723;29;20082;-80
2023/03/02 10:30:05;;;;;;;21.00;10.68;;;;;;;;;;10221860;29;20052;-82
2023/03/02 10:35:25;;;;;;;16.58;9.68;;;;;;;;;;10228975;29;20215;-81
2023/03/02 10:40:31;;;;;;;19.17;9.45;;;;;;;;;;10241240;29;20035;-81
2023/03/02 10:45:31;;;;;;;17.50;9.00;;;;;;;;;;10255665;28;20035;-80
2023/03/02 10:50:32;;;;;;;14.07;8.05;;;;;;;;;;10249843;29;20039;-81
2023/03/02 10:55:33;;;;;;;12.88;7.95;;;;;;;;;;10208240;29;20135;-79
2023/03/02 11:00:34;;;;;;;16.52;8.38;;;;;;;;;;10231525;29;20128;-80
2023/03/02 11:05:36;;;;;;;15.40;8.57;;;;;;;;;;10231061;29;20112;-80
2023/03/02 11:11:03;;;;;;;15.18;9.02;;;;;;;;;;10226592;29;20498;-80
2023/03/02 11:16:05;;;;;;;15.25;9.15;;;;;;;;;;10223321;28;20050;-80
2023/03/02 11:21:26;;;;;;;14.30;8.70;;;;;;;;;;10228690;28;20088;-81
2023/03/02 11:26:27;;;;;;;16.33;9.35;;;;;;;;;;10207162;29;20135;-82
2023/03/02 11:31:48;;;;;;;15.38;9.27;;;;;;;;;;10210767;29;20060;-80
2023/03/02 11:36:51;;;;;;;15.70;9.20;;;;;;;;;;10222959;29;20044;-81
2023/03/02 11:41:52;;;;;;;14.07;8.52;;;;;;;;;;10228628;29;20055;-80
2023/03/02 11:46:58;;;;;;;16.52;8.85;;;;;;;;;;10234487;29;20060;-78
2023/03/02 11:51:59;;;;;;;14.93;9.02;;;;;;;;;;10238149;29;20059;-79
2023/03/02 11:57:00;;;;;;;13.93;7.82;;;;;;;;;;10229286;29;20365;-80
2023/03/02 12:02:01;;;;;;;17.08;8.95;;;;;;;;;;10201473;29;20066;-80
2023/03/02 12:07:14;;;;;;;15.90;8.30;;;;;;;;;;10199032;29;20115;-80
2023/03/02 12:12:17;;;;;;;12.45;7.70;;;;;;;;;;10228175;29;20070;-81
2023/03/02 12:17:21;;;;;;;12.55;6.22;;;;;;;;;;10223232;29;20138;-81
2023/03/02 12:22:23;;;;;;;;;;;;;;;;;;10199976;29;20075;-82
2023/03/02 12:27:25;;;;;;;12.85;6.32;;;;;;;;;;10222752;29;19918;-82
2023/03/02 12:32:29;;;;;;;12.13;6.90;;;;;;;;;;10219039;29;20090;-80
2023/03/02 12:37:52;;;;;;;12.15;6.55;;;;;;;;;;10204785;28;20491;-83
2023/03/02 12:42:58;;;;;;;11.15;5.90;;;;;;;;;;10189967;29;20060;-82
2023/03/02 12:48:04;;;;;;;11.38;6.25;;;;;;;;;;10220067;29;20099;-78
2023/03/02 12:53:06;;;;;;;11.15;5.53;;;;;;;;;;10210108;29;20074;-85
2023/03/02 12:58:24;;;;;;;13.40;6.05;;;;;;;;;;10236464;29;20051;-88
2023/03/02 13:03:25;;;;;;;9.65;5.57;;;;;;;;;;10237657;28;20047;-88
2023/03/02 13:08:27;;;;;;;;;;;;;;;;;;10235525;28;20031;-87
2023/03/02 13:13:32;;;;;;;9.85;5.68;;;;;;;;;;10257943;28;19911;-87
2023/03/02 13:18:33;;;;;;;9.15;4.93;;;;;;;;;;10264564;28;20034;-88
2023/03/02 13:23:44;;;;;;;10.30;5.15;;;;;;;;;;10250345;28;20052;-85
2023/03/02 13:28:46;;;;;;;8.45;5.07;;;;;;;;;;10256016;28;20044;-87
2023/03/02 13:33:49;;;;;;;7.97;4.90;;;;;;;;;;10209632;29;20043;-88
2023/03/02 13:38:58;;;;;;;10.60;4.90;;;;;;;;;;10215324;29;21031;-77
2023/03/02 13:43:58;;;;;;;;;;;;;;;;;;10193082;29;20135;-75
2023/03/02 13:49:00;;;;;;;8.73;4.78;;;;;;;;;;10177038;29;19934;-77
2023/03/02 13:54:05;;;;;;;11.63;5.30;;;;;;;;;;10176751;28;20062;-74
2023/03/02 13:59:13;;;;;;;9.30;5.28;;;;;;;;;;10168172;29;20292;-75
2023/03/02 14:04:16;;;;;;;11.50;5.32;;;;;;;;;;10198874;29;20087;-75
2023/03/02 14:09:17;;;;;;;11.95;6.22;;;;;;;;;;10196361;29;20040;-77
2023/03/02 14:14:19;;;;;;;10.77;6.07;;;;;;;;;;10195091;29;20050;-75
2023/03/02 14:19:20;;;;;;;11.10;5.65;;;;;;;;;;10201827;29;20073;-76
2023/03/02 14:24:20;;;;;;;13.05;5.88;;;;;;;;;;10198112;29;20392;-75
2023/03/02 14:29:26;;;;;;;11.75;5.60;;;;;;;;;;10182306;29;20098;-73
2023/03/02 14:34:27;;;;;;;9.15;5.55;;;;;;;;;;10179497;29;20075;-79
2023/03/02 14:39:38;;;;;;;12.23;5.53;;;;;;;;;;10185273;29;20052;-79
2023/03/02 14:44:39;;;;;;;11.02;5.47;;;;;;;;;;10186674;29;20066;-81
2023/03/02 14:49:40;;;;;;;10.13;6.07;;;;;;;;;;10182383;29;20044;-78
2023/03/02 14:54:45;;;;;;;15.43;7.33;;;;;;;;;;10216898;29;20071;-79
2023/03/02 14:59:46;;;;;;;10.55;5.50;;;;;;;;;;10240652;28;20293;-83
2023/03/02 15:04:51;;;;;;;10.75;6.07;;;;;;;;;;10253874;28;20044;-81
2023/03/02 15:09:53;;;;;;;12.25;6.03;;;;;;;;;;10250612;29;20054;-80
2023/03/02 15:14:53;;;;;;;10.75;5.55;;;;;;;;;;10229659;29;20051;-80
2023/03/02 15:19:54;;;;;;;12.23;5.57;;;;;;;;;;10220314;29;20055;-79
2023/03/02 15:24:55;;;;;;;12.80;5.82;;;;;;;;;;10190810;29;20206;-80
2023/03/02 15:29:55;;;;;;;8.80;5.05;;;;;;;;;;10200911;29;20059;-79
2023/03/02 15:34:56;;;;;;;11.35;5.57;;;;;;;;;;10201491;29;20044;-80
2023/03/02 15:39:57;;;;;;;13.30;6.10;;;;;;;;;;10210711;28;20063;-80
2023/03/02 15:44:57;;;;;;;10.13;5.75;;;;;;;;;;10210726;29;20070;-78
2023/03/02 15:50:00;;;;;;;13.00;6.18;;;;;;;;;;10213738;29;20051;-81
2023/03/02 15:55:00;;;;;;;11.73;6.35;;;;;;;;;;10200223;29;20059;-80
2023/03/02 16:00:01;;;;;;;14.38;5.75;;;;;;;;;;10204873;29;20115;-79
2023/03/02 16:05:01;;;;;;;17.33;6.00;;;;;;;;;;10167769;29;20051;-80
2023/03/02 16:10:02;;;;;;;11.05;6.15;;;;;;;;;;10201977;29;20286;-80
2023/03/02 16:15:02;;;;;;;11.70;5.97;;;;;;;;;;10206285;29;20054;-81
2023/03/02 16:20:03;;;;;;;9.45;5.72;;;;;;;;;;10205539;28;20057;-79
2023/03/02 16:25:03;;;;;;;14.73;9.13;;;;;;;;;;10183054;29;20684;-83
2023/03/02 16:30:06;;;;;;;12.27;6.60;;;;;;;;;;10200319;29;20039;-83
2023/03/02 16:35:09;;;;;;;11.88;5.53;;;;;;;;;;10194757;29;20095;-81
2023/03/02 16:40:10;;;;;;;11.02;6.18;;;;;;;;;;10197805;29;20402;-83
2023/03/02 16:45:10;;;;;;;11.73;6.70;;;;;;;;;;10207589;29;20083;-82
2023/03/02 16:50:11;;;;;;;10.80;6.03;;;;;;;;;;10218416;29;20052;-82
2023/03/02 16:55:14;;;;;;;11.85;6.78;;;;;;;;;;10214750;29;20072;-79
2023/03/02 17:00:15;;;;;;;;;;;;;;;;;;10208101;29;20054;-82
2023/03/02 17:05:17;;;;;;;12.48;6.65;;;;;;;;;;10203623;29;19976;-81
2023/03/02 17:10:19;;;;;;;13.00;7.05;;;;;;;;;;10208780;29;20119;-81
2023/03/02 17:15:19;;;;;;;17.10;7.18;;;;;;;;;;10226284;29;20111;-80
2023/03/02 17:20:20;;;;;;;14.13;6.70;;;;;;;;;;10255098;28;20058;-79
2023/03/02 17:25:20;;;;;;;10.43;6.70;;;;;;;;;;10233641;28;20048;-81
2023/03/02 17:30:21;;;;;;;16.85;8.07;;;;;;;;;;10252966;28;20023;-80
2023/03/02 17:35:25;;;;;;;14.63;7.13;;;;;;;;;;10223803;29;20235;-79
2023/03/02 17:40:28;;;;;;;15.93;9.05;;;;;;;;;;10223802;28;20044;-80
2023/03/02 17:45:29;;;;;;;22.05;12.98;;;;;;;;;;10191877;29;20055;-82
2023/03/02 17:50:31;;;;;;;15.18;8.95;;;;;;;;;;10219034;29;20046;-82
2023/03/02 17:55:31;;;;;;;12.43;7.88;;;;;;;;;;10200445;29;20086;-83
2023/03/02 18:00:32;;;;;;;14.20;8.38;;;;;;;;;;10237502;28;20127;-82
2023/03/02 18:05:32;;;;;;;18.90;8.30;;;;;;;;;;10231725;29;20052;-82
2023/03/02 18:10:33;;;;;;;17.17;8.70;;;;;;;;;;10234648;29;20048;-80
2023/03/02 18:15:33;;;;;;;17.20;8.55;;;;;;;;;;10236091;29;20135;-80
2023/03/02 18:20:35;;;;;;;17.45;10.10;;;;;;;;;;10244450;28;20071;-80
2023/03/02 18:25:35;;;;;;;20.92;10.52;;;;;;;;;;10192688;29;20710;-80
2023/03/02 18:30:36;;;;;;;20.60;11.95;;;;;;;;;;10205139;29;20044;-82
2023/03/02 18:35:38;;;;;;;20.58;11.50;;;;;;;;;;10197467;29;20036;-81
2023/03/02 18:40:39;;;;;;;22.45;11.95;;;;;;;;;;10181834;29;20535;-80
2023/03/02 18:45:41;;;;;;;23.67;13.68;;;;;;;;;;10217724;29;20094;-82
2023/03/02 18:50:42;;;;;;;22.70;13.73;;;;;;;;;;10210349;29;20040;-81
2023/03/02 18:55:45;;;;;;;25.27;14.55;;;;;;;;;;10194200;29;20060;-78
2023/03/02 19:00:46;;;;;;;25.58;13.27;;;;;;;;;;10191119;29;20051;-83
2023/03/02 19:05:47;;;;;;;26.27;14.45;;;;;;;;;;10207037;29;20095;-81
2023/03/02 19:10:49;;;;;;;27.25;14.43;;;;;;;;;;10203950;29;20040;-79
2023/03/02 19:15:51;;;;;;;26.98;16.25;;;;;;;;;;10183320;29;20095;-80
2023/03/02 19:20:56;;;;;;;21.20;13.60;;;;;;;;;;10207309;29;20059;-81
2023/03/02 19:25:59;;;;;;;28.10;16.63;;;;;;;;;;10215789;29;20055;-81
2023/03/02 19:31:10;;;;;;;24.85;15.05;;;;;;;;;;10237862;29;20143;-80
2023/03/02 19:36:11;;;;;;;28.17;15.38;;;;;;;;;;10222266;29;20051;-79
2023/03/02 19:41:13;;;;;;;24.70;14.40;;;;;;;;;;10221062;29;20047;-80
2023/03/02 19:46:14;;;;;;;27.63;16.00;;;;;;;;;;10200770;29;20135;-84
2023/03/02 19:51:15;;;;;;;27.30;15.48;;;;;;;;;;10220048;29;20055;-82
2023/03/02 19:56:18;;;;;;;28.02;15.73;;;;;;;;;;10211531;28;20074;-81
2023/03/02 20:01:24;;;;;;;25.20;15.73;;;;;;;;;;10211106;29;20512;-86
2023/03/02 20:06:29;;;;;;;28.45;16.42;;;;;;;;;;10203048;29;20095;-79
2023/03/02 20:11:30;;;;;;;27.42;15.63;;;;;;;;;;10216821;29;20099;-82
2023/03/02 20:16:33;;;;;;;28.45;15.32;;;;;;;;;;10228728;28;20051;-82
2023/03/02 20:21:36;;;;;;;29.77;15.85;;;;;;;;;;10202629;29;20058;-82
2023/03/02 20:26:37;;;;;;;26.65;15.32;;;;;;;;;;10197055;29;20047;-82
2023/03/02 20:31:38;;;;;;;29.00;16.13;;;;;;;;;;10214583;29;20092;-80
2023/03/02 20:36:39;;;;;;;25.58;14.48;;;;;;;;;;10218228;29;20044;-81
2023/03/02 20:41:41;;;;;;;26.30;15.68;;;;;;;;;;10214120;29;20067;-83
2023/03/02 20:46:50;;;;;;;28.13;15.27;;;;;;;;;;10188287;29;20551;-78
2023/03/02 20:51:53;;;;;;;29.38;16.92;;;;;;;;;;10176166;29;20561;-79
2023/03/02 20:56:55;;;;;;;28.93;15.27;;;;;;;;;;10201455;29;20151;-78
2023/03/02 21:01:57;;;;;;;27.50;16.30;;;;;;;;;;10201680;29;20318;-79
2023/03/02 21:06:59;;;;;;;28.63;16.15;;;;;;;;;;10210607;29;20069;-78
2023/03/02 21:12:00;;;;;;;27.20;14.33;;;;;;;;;;10234118;29;20062;-79
2023/03/02 21:17:02;;;;;;;29.05;15.50;;;;;;;;;;10246604;29;20046;-80
2023/03/02 21:22:03;;;;;;;27.58;17.42;;;;;;;;;;10240458;28;20063;-80
2023/03/02 21:27:06;;;;;;;29.80;16.00;;;;;;;;;;10236046;29;20590;-79
2023/03/02 21:32:08;;;;;;;27.98;15.60;;;;;;;;;;10216265;28;20048;-78
2023/03/02 21:37:08;;;;;;;31.10;16.02;;;;;;;;;;10211516;29;20047;-80
2023/03/02 21:42:11;;;;;;;27.45;16.67;;;;;;;;;;10239169;29;20067;-80
2023/03/02 21:47:11;;;;;;;28.83;15.77;;;;;;;;;;10242348;29;20063;-79
2023/03/02 21:52:13;;;;;;;26.63;15.90;;;;;;;;;;10214137;29;20059;-79
2023/03/02 21:57:13;;;;;;;26.83;15.73;;;;;;;;;;10205421;29;20040;-79
2023/03/02 22:02:14;;;;;;;28.10;15.63;;;;;;;;;;10198057;29;20063;-79
2023/03/02 22:07:14;;;;;;;28.02;15.75;;;;;;;;;;10206852;28;20134;-78
2023/03/02 22:12:15;;;;;;;24.13;15.10;;;;;;;;;;10184551;29;20059;-77
2023/03/02 22:17:18;;;;;;;25.98;14.57;;;;;;;;;;10212719;29;20571;-78
2023/03/02 22:22:25;;;;;;;28.50;14.95;;;;;;;;;;10206744;29;20089;-78
2023/03/02 22:27:33;;;;;;;28.05;15.50;;;;;;;;;;10198054;29;20047;-81
2023/03/02 22:32:37;;;;;;;26.45;14.88;;;;;;;;;;10190417;29;20074;-79
2023/03/02 22:37:37;;;;;;;27.65;15.80;;;;;;;;;;10202289;29;20397;-79
2023/03/02 22:42:40;;;;;;;23.05;14.68;;;;;;;;;;10212910;29;20505;-79
2023/03/02 22:47:50;;;;;;;26.63;14.80;;;;;;;;;;10216288;29;20098;-81
2023/03/02 22:52:52;;;;;;;27.20;15.35;;;;;;;;;;10180942;29;20048;-79
2023/03/02 22:57:52;;;;;;;26.15;15.30;;;;;;;;;;10193817;29;20060;-80
2023/03/02 23:02:54;;;;;;;29.60;14.65;;;;;;;;;;10192935;29;20059;-79
2023/03/02 23:08:13;;;;;;;29.00;14.93;;;;;;;;;;10206255;29;20043;-79
2023/03/02 23:13:16;;;;;;;25.95;14.93;;;;;;;;;;10204411;29;20055;-79
2023/03/02 23:18:22;;;;;;;27.33;15.73;;;;;;;;;;10214120;29;20461;-80
2023/03/02 23:23:25;;;;;;;27.38;14.32;;;;;;;;;;10189050;29;20059;-80
2023/03/02 23:28:26;;;;;;;26.17;14.00;;;;;;;;;;10200034;29;20056;-80
2023/03/02 23:33:26;;;;;;;27.20;14.88;;;;;;;;;;10200441;29;20048;-80
2023/03/02 23:38:27;;;;;;;26.35;13.80;;;;;;;;;;10190007;29;20059;-80
2023/03/02 23:43:27;;;;;;;24.58;14.00;;;;;;;;;;10209039;29;20839;-79
2023/03/02 23:48:28;;;;;;;24.70;14.57;;;;;;;;;;10197703;29;20048;-78
2023/03/02 23:53:28;;;;;;;25.98;13.93;;;;;;;;;;10184663;29;20056;-79
2023/03/02 23:58:29;;;;;;;24.63;13.00;;;;;;;;;;10203755;29;20050;-78
